Apiliotis — SYVY — position and weather

sailwx.info

Track history (hours):
 
Tides and Currents Weather Stations Pressure Air Temp Water Temp Dewpoint Dewpoint Depression Visibility Wind Speed Wind Dir Waves Ship Positions

Apiliotis

Last reported at 2017-Nov-23 02:33 UTC. Time now 2017-Nov-23 03:44 UTC.
Position N 39°31' E 024°04'.

Length 79 m; draft 4.5 m.

Type: Ship. MMSI: 240438000.

Date/timePositionNaut miles runAvg speedWind from/ knotsBaromVisibWave heightAir tempDewpointWater temp
2017-Nov-23 02:33N 39°31' E 024°04'410.7
2017-Nov-23 02:12N 39°33' E 024°08'210.6
2017-Nov-23 02:00N 39°34' E 024°10'  
2017-Nov-18 10:38N 37°24' E 025°55'111.6
2017-Nov-18 10:30N 37°25' E 025°54'611.5
2017-Nov-18 10:00N 37°26' E 025°47'611.8
2017-Nov-18 09:30N 37°28' E 025°39'612.5
2017-Nov-18 09:00N 37°29' E 025°32'612.0
2017-Nov-18 08:30N 37°31' E 025°24'611.7
2017-Nov-18 08:00N 37°31' E 025°17'611.9
2017-Nov-18 07:31N 37°31' E 025°10'1 2.4
2017-Nov-18 07:00N 37°32' E 025°09'0 0.0
2017-Nov-18 06:30N 37°32' E 025°09'0 0.0
2017-Nov-18 06:00N 37°32' E 025°09'0 0.0
2017-Nov-18 05:30N 37°32' E 025°09'0 0.2
2017-Nov-18 05:01N 37°32' E 025°09'4 8.9
2017-Nov-18 04:30N 37°32' E 025°04'611.5
2017-Nov-18 04:00N 37°32' E 024°56'611.7
2017-Nov-18 03:30N 37°32' E 024°49'36 2.0
2017-Nov-17 09:50N 37°37' E 024°05'1111.5
2017-Nov-17 08:55N 37°38' E 023°51'511.4
2017-Nov-17 08:30N 37°38' E 023°45'510.6
2017-Nov-17 08:00N 37°42' E 023°41'510.9
2017-Nov-17 07:30N 37°47' E 023°38'510.7
2017-Nov-17 07:01N 37°52' E 023°36'5 9.5
2017-Nov-17 06:30N 37°57' E 023°35'4 7.2
2017-Nov-17 06:00N 38°00' E 023°33'1 2.1
2017-Nov-17 05:28N 38°01' E 023°33'0 0.0
2017-Nov-17 04:58N 38°01' E 023°33'0 0.0
2017-Nov-17 04:28N 38°01' E 023°33'0 0.0
2017-Nov-17 03:58N 38°01' E 023°33'0 0.0
2017-Nov-17 03:28N 38°01' E 023°33'0 0.0
2017-Nov-17 02:58N 38°01' E 023°33'0 0.0
2017-Nov-17 02:28N 38°01' E 023°33'0 0.0
2017-Nov-17 01:58N 38°01' E 023°33'0 0.0
2017-Nov-17 01:28N 38°01' E 023°33'0 0.0
2017-Nov-17 00:58N 38°01' E 023°33'0 0.0
2017-Nov-17 00:28N 38°01' E 023°33'0 0.0
2017-Nov-16 23:58N 38°01' E 023°32'0 0.0
2017-Nov-16 23:29N 38°01' E 023°32'0 0.0
2017-Nov-16 22:58N 38°01' E 023°33'0 0.0
2017-Nov-16 22:28N 38°01' E 023°32'0 0.1
2017-Nov-16 21:58N 38°01' E 023°32'0 0.0
2017-Nov-16 21:28N 38°01' E 023°32'0 0.3
2017-Nov-16 20:58N 38°01' E 023°33'0 0.0
2017-Nov-16 20:28N 38°01' E 023°33'0 0.2
2017-Nov-16 19:58N 38°01' E 023°33'0 0.1
2017-Nov-16 19:25N 38°01' E 023°32'0 0.1
2017-Nov-16 18:58N 38°01' E 023°32'0 0.0
2017-Nov-16 18:28N 38°01' E 023°32'0 0.0
2017-Nov-16 17:58N 38°01' E 023°32'0 0.0
2017-Nov-16 17:25N 38°01' E 023°32'0 0.0
2017-Nov-16 16:58N 38°01' E 023°32'0 0.0
2017-Nov-16 16:25N 38°01' E 023°32'0 0.0
2017-Nov-16 15:55N 38°01' E 023°32'0 0.0
2017-Nov-16 15:28N 38°01' E 023°32'0 0.0
2017-Nov-16 14:55N 38°01' E 023°32'0 0.0
2017-Nov-16 14:25N 38°01' E 023°32'0 0.0
2017-Nov-16 13:58N 38°01' E 023°32'0 0.0
2017-Nov-16 13:28N 38°01' E 023°32'0 0.0
2017-Nov-16 12:55N 38°01' E 023°32'0 0.0
2017-Nov-16 12:25N 38°01' E 023°32'0 0.0
2017-Nov-16 11:34N 38°01' E 023°32'0 0.1
2017-Nov-16 11:25N 38°01' E 023°32'0 0.0
2017-Nov-16 10:55N 38°01' E 023°32'0 0.0
2017-Nov-16 10:28N 38°01' E 023°32'0 0.0
2017-Nov-16 09:49N 38°01' E 023°32'0 0.1
2017-Nov-16 09:25N 38°01' E 023°32'0 0.1
2017-Nov-16 08:55N 38°01' E 023°33'0 0.0
2017-Nov-16 08:19N 38°01' E 023°32'0 0.3
2017-Nov-16 07:58N 38°01' E 023°33'0 0.2
2017-Nov-16 07:25N 38°01' E 023°32'0 0.0
2017-Nov-16 06:58N 38°01' E 023°32'0 0.0
2017-Nov-16 06:28N 38°01' E 023°32'0 0.0
2017-Nov-16 05:58N 38°01' E 023°32'0 0.0
2017-Nov-16 05:31N 38°01' E 023°32'0 0.8
2017-Nov-16 05:01N 38°01' E 023°33'2 4.5
2017-Nov-16 04:31N 38°02' E 023°36'0 0.0
2017-Nov-16 04:01N 38°02' E 023°36'0 0.0
2017-Nov-16 03:30N 38°02' E 023°36'0 0.0
2017-Nov-16 03:01N 38°02' E 023°36'0 0.0
2017-Nov-16 02:31N 38°02' E 023°36'0 0.0
2017-Nov-16 02:01N 38°02' E 023°36'0 0.0
2017-Nov-16 01:31N 38°02' E 023°36'0 0.0
2017-Nov-16 01:01N 38°02' E 023°36'0 0.0
2017-Nov-16 00:31N 38°02' E 023°36'0 0.0
2017-Nov-16 00:01N 38°02' E 023°36'0 0.0
2017-Nov-15 23:31N 38°02' E 023°36'0 0.0
2017-Nov-15 23:01N 38°02' E 023°36'0 0.0
2017-Nov-15 22:31N 38°02' E 023°36'0 0.0
2017-Nov-15 22:00N 38°02' E 023°36'0 0.0
2017-Nov-15 21:31N 38°02' E 023°36'0 0.0
2017-Nov-15 21:00N 38°02' E 023°36'0 0.0
2017-Nov-15 20:31N 38°02' E 023°36'1 1.2
2017-Nov-15 20:01N 38°01' E 023°35'0 0.2
2017-Nov-15 19:30N 38°01' E 023°35'0 0.1
2017-Nov-15 19:00N 38°01' E 023°35'0 0.0
2017-Nov-15 18:30N 38°01' E 023°35'0 0.0
2017-Nov-15 18:00N 38°01' E 023°35'0 0.0
2017-Nov-15 17:26N 38°01' E 023°35'0 0.0
2017-Nov-15 17:01N 38°01' E 023°35'0 0.0
2017-Nov-15 16:31N 38°01' E 023°35'0 0.0
2017-Nov-15 16:01N 38°01' E 023°35'0 0.0
2017-Nov-15 15:31N 38°01' E 023°35'0 0.0
2017-Nov-15 15:01N 38°01' E 023°35'0 0.0
2017-Nov-15 14:31N 38°01' E 023°35'0 0.0
2017-Nov-15 14:01N 38°01' E 023°35'1 2.4
2017-Nov-15 13:30N 38°01' E 023°34'1 2.6
2017-Nov-15 13:01N 38°02' E 023°32'0 0.0
2017-Nov-15 12:30N 38°02' E 023°32'0 0.0
2017-Nov-15 12:00N 38°02' E 023°32'0 0.0
2017-Nov-15 11:31N 38°02' E 023°32'0 0.0
2017-Nov-15 11:01N 38°02' E 023°32'0 0.0
2017-Nov-15 10:31N 38°02' E 023°32'0 0.0
2017-Nov-15 10:00N 38°02' E 023°32'0 0.0
2017-Nov-15 09:31N 38°02' E 023°32'0 0.0
2017-Nov-15 09:01N 38°02' E 023°32'0 0.0
2017-Nov-15 08:30N 38°02' E 023°32'0 0.0
2017-Nov-15 08:01N 38°02' E 023°32'0 0.0
2017-Nov-15 07:31N 38°02' E 023°32'0 0.0
2017-Nov-15 07:01N 38°02' E 023°32'0 0.0
2017-Nov-15 06:31N 38°02' E 023°32'0 0.0
2017-Nov-15 06:00N 38°02' E 023°32'1 1.0
2017-Nov-15 05:30N 38°01' E 023°32'0 0.0
2017-Nov-15 05:01N 38°01' E 023°32'0 0.0
2017-Nov-15 04:30N 38°01' E 023°32'0 0.1
2017-Nov-15 04:01N 38°01' E 023°32'0 0.0
2017-Nov-15 03:30N 38°01' E 023°32'0 0.0
2017-Nov-15 03:01N 38°01' E 023°32'0 0.0
2017-Nov-15 02:31N 38°01' E 023°32'0 0.0
2017-Nov-15 02:00N 38°01' E 023°32'0 0.0
2017-Nov-15 01:31N 38°01' E 023°32'0 0.0
2017-Nov-15 01:01N 38°01' E 023°32'0 0.0
2017-Nov-15 00:31N 38°01' E 023°32'0 0.0
2017-Nov-15 00:01N 38°01' E 023°32'0 0.0
2017-Nov-14 23:31N 38°01' E 023°32'0 0.0
2017-Nov-14 23:01N 38°01' E 023°32'0 0.0
2017-Nov-14 22:31N 38°01' E 023°32'0 0.0
2017-Nov-14 22:01N 38°01' E 023°32'0 0.0
2017-Nov-14 21:31N 38°01' E 023°32'0 0.0
2017-Nov-14 21:01N 38°01' E 023°32'0 0.0
2017-Nov-14 20:31N 38°01' E 023°32'0 0.0
2017-Nov-14 20:01N 38°01' E 023°32'0 0.0
2017-Nov-14 19:31N 38°01' E 023°32'0 0.0
2017-Nov-14 19:01N 38°01' E 023°32'0 0.0
2017-Nov-14 18:31N 38°01' E 023°32'0 0.0
2017-Nov-14 18:01N 38°01' E 023°32'0 0.0
2017-Nov-14 17:31N 38°01' E 023°32'0 0.0
2017-Nov-14 17:01N 38°01' E 023°32'0 0.0
2017-Nov-14 16:31N 38°01' E 023°32'0 0.2
2017-Nov-14 16:00N 38°01' E 023°32'0 0.1
2017-Nov-14 15:30N 38°01' E 023°32'0 0.0
2017-Nov-14 15:01N 38°01' E 023°32'0 0.0
2017-Nov-14 14:30N 38°01' E 023°32'0 0.0
2017-Nov-14 14:00N 38°01' E 023°32'0 0.0
2017-Nov-14 13:30N 38°01' E 023°32'0 0.0
2017-Nov-14 13:01N 38°01' E 023°32'0 0.0
2017-Nov-14 12:31N 38°01' E 023°32'0 0.0
2017-Nov-14 12:01N 38°01' E 023°32'0 0.2
2017-Nov-14 11:30N 38°01' E 023°32'0 0.0
2017-Nov-14 11:01N 38°01' E 023°32'0 0.1
2017-Nov-14 10:30N 38°01' E 023°32'0 0.0
2017-Nov-14 10:01N 38°01' E 023°32'0 0.1
2017-Nov-14 09:30N 38°01' E 023°32'0 0.1
2017-Nov-14 09:00N 38°01' E 023°32'0 0.1
2017-Nov-14 08:30N 38°01' E 023°32'0 0.0
2017-Nov-14 08:01N 38°01' E 023°32'0 0.0
2017-Nov-14 07:30N 38°01' E 023°32'0 0.0
2017-Nov-14 07:00N 38°01' E 023°32'0 0.0
2017-Nov-14 06:30N 38°01' E 023°32'2 4.3
2017-Nov-14 06:01N 37°59' E 023°33'5 9.4
2017-Nov-14 05:31N 37°55' E 023°36'4 8.0
2017-Nov-14 05:00N 37°52' E 023°38'612.0
2017-Nov-14 04:31N 37°46' E 023°42'612.2
2017-Nov-14 04:01N 37°41' E 023°45'4711.4
2017-Nov-13 23:51N 37°32' E 024°44'412.0
2017-Nov-13 23:30N 37°32' E 024°49'612.0
2017-Nov-13 23:01N 37°32' E 024°57'611.9
2017-Nov-13 22:31N 37°32' E 025°04'4 8.2
2017-Nov-13 22:01N 37°32' E 025°09'  
Track history (hours):
 
Tides and Currents Weather Stations Pressure Air Temp Water Temp Dewpoint Dewpoint Depression Visibility Wind Speed Wind Dir Waves Ship Positions

Apiliotis

Last reported at 2017-Nov-23 02:33 UTC. Time now 2017-Nov-23 03:44 UTC.
Position N 39°31' E 024°04'.

Length 79 m; draft 4.5 m.

Type: Ship. MMSI: 240438000.

Date/timePositionNaut miles runAvg speedWind from/ knotsBaromVisibWave heightAir tempDewpointWater temp
2017-Nov-23 02:33N 39°31' E 024°04'410.7
2017-Nov-23 02:12N 39°33' E 024°08'210.6
2017-Nov-23 02:00N 39°34' E 024°10'  
2017-Nov-18 10:38N 37°24' E 025°55'111.6
2017-Nov-18 10:30N 37°25' E 025°54'611.5
2017-Nov-18 10:00N 37°26' E 025°47'611.8
2017-Nov-18 09:30N 37°28' E 025°39'612.5
2017-Nov-18 09:00N 37°29' E 025°32'612.0
2017-Nov-18 08:30N 37°31' E 025°24'611.7
2017-Nov-18 08:00N 37°31' E 025°17'611.9
2017-Nov-18 07:31N 37°31' E 025°10'1 2.4
2017-Nov-18 07:00N 37°32' E 025°09'0 0.0
2017-Nov-18 06:30N 37°32' E 025°09'0 0.0
2017-Nov-18 06:00N 37°32' E 025°09'0 0.0
2017-Nov-18 05:30N 37°32' E 025°09'0 0.2
2017-Nov-18 05:01N 37°32' E 025°09'4 8.9
2017-Nov-18 04:30N 37°32' E 025°04'611.5
2017-Nov-18 04:00N 37°32' E 024°56'611.7
2017-Nov-18 03:30N 37°32' E 024°49'36 2.0
2017-Nov-17 09:50N 37°37' E 024°05'1111.5
2017-Nov-17 08:55N 37°38' E 023°51'511.4
2017-Nov-17 08:30N 37°38' E 023°45'510.6
2017-Nov-17 08:00N 37°42' E 023°41'510.9
2017-Nov-17 07:30N 37°47' E 023°38'510.7
2017-Nov-17 07:01N 37°52' E 023°36'5 9.5
2017-Nov-17 06:30N 37°57' E 023°35'4 7.2
2017-Nov-17 06:00N 38°00' E 023°33'1 2.1
2017-Nov-17 05:28N 38°01' E 023°33'0 0.0
2017-Nov-17 04:58N 38°01' E 023°33'0 0.0
2017-Nov-17 04:28N 38°01' E 023°33'0 0.0
2017-Nov-17 03:58N 38°01' E 023°33'0 0.0
2017-Nov-17 03:28N 38°01' E 023°33'0 0.0
2017-Nov-17 02:58N 38°01' E 023°33'0 0.0
2017-Nov-17 02:28N 38°01' E 023°33'0 0.0
2017-Nov-17 01:58N 38°01' E 023°33'0 0.0
2017-Nov-17 01:28N 38°01' E 023°33'0 0.0
2017-Nov-17 00:58N 38°01' E 023°33'0 0.0
2017-Nov-17 00:28N 38°01' E 023°33'0 0.0
2017-Nov-16 23:58N 38°01' E 023°32'0 0.0
2017-Nov-16 23:29N 38°01' E 023°32'0 0.0
2017-Nov-16 22:58N 38°01' E 023°33'0 0.0
2017-Nov-16 22:28N 38°01' E 023°32'0 0.1
2017-Nov-16 21:58N 38°01' E 023°32'0 0.0
2017-Nov-16 21:28N 38°01' E 023°32'0 0.3
2017-Nov-16 20:58N 38°01' E 023°33'0 0.0
2017-Nov-16 20:28N 38°01' E 023°33'0 0.2
2017-Nov-16 19:58N 38°01' E 023°33'0 0.1
2017-Nov-16 19:25N 38°01' E 023°32'0 0.1
2017-Nov-16 18:58N 38°01' E 023°32'0 0.0
2017-Nov-16 18:28N 38°01' E 023°32'0 0.0
2017-Nov-16 17:58N 38°01' E 023°32'0 0.0
2017-Nov-16 17:25N 38°01' E 023°32'0 0.0
2017-Nov-16 16:58N 38°01' E 023°32'0 0.0
2017-Nov-16 16:25N 38°01' E 023°32'0 0.0
2017-Nov-16 15:55N 38°01' E 023°32'0 0.0
2017-Nov-16 15:28N 38°01' E 023°32'0 0.0
2017-Nov-16 14:55N 38°01' E 023°32'0 0.0
2017-Nov-16 14:25N 38°01' E 023°32'0 0.0
2017-Nov-16 13:58N 38°01' E 023°32'0 0.0
2017-Nov-16 13:28N 38°01' E 023°32'0 0.0
2017-Nov-16 12:55N 38°01' E 023°32'0 0.0
2017-Nov-16 12:25N 38°01' E 023°32'0 0.0
2017-Nov-16 11:34N 38°01' E 023°32'0 0.1
2017-Nov-16 11:25N 38°01' E 023°32'0 0.0
2017-Nov-16 10:55N 38°01' E 023°32'0 0.0
2017-Nov-16 10:28N 38°01' E 023°32'0 0.0
2017-Nov-16 09:49N 38°01' E 023°32'0 0.1
2017-Nov-16 09:25N 38°01' E 023°32'0 0.1
2017-Nov-16 08:55N 38°01' E 023°33'0 0.0
2017-Nov-16 08:19N 38°01' E 023°32'0 0.3
2017-Nov-16 07:58N 38°01' E 023°33'0 0.2
2017-Nov-16 07:25N 38°01' E 023°32'0 0.0
2017-Nov-16 06:58N 38°01' E 023°32'0 0.0
2017-Nov-16 06:28N 38°01' E 023°32'0 0.0
2017-Nov-16 05:58N 38°01' E 023°32'0 0.0
2017-Nov-16 05:31N 38°01' E 023°32'0 0.8
2017-Nov-16 05:01N 38°01' E 023°33'2 4.5
2017-Nov-16 04:31N 38°02' E 023°36'0 0.0
2017-Nov-16 04:01N 38°02' E 023°36'0 0.0
2017-Nov-16 03:30N 38°02' E 023°36'0 0.0
2017-Nov-16 03:01N 38°02' E 023°36'0 0.0
2017-Nov-16 02:31N 38°02' E 023°36'0 0.0
2017-Nov-16 02:01N 38°02' E 023°36'0 0.0
2017-Nov-16 01:31N 38°02' E 023°36'0 0.0
2017-Nov-16 01:01N 38°02' E 023°36'0 0.0
2017-Nov-16 00:31N 38°02' E 023°36'0 0.0
2017-Nov-16 00:01N 38°02' E 023°36'0 0.0
2017-Nov-15 23:31N 38°02' E 023°36'0 0.0
2017-Nov-15 23:01N 38°02' E 023°36'0 0.0
2017-Nov-15 22:31N 38°02' E 023°36'0 0.0
2017-Nov-15 22:00N 38°02' E 023°36'0 0.0
2017-Nov-15 21:31N 38°02' E 023°36'0 0.0
2017-Nov-15 21:00N 38°02' E 023°36'0 0.0
2017-Nov-15 20:31N 38°02' E 023°36'1 1.2
2017-Nov-15 20:01N 38°01' E 023°35'0 0.2
2017-Nov-15 19:30N 38°01' E 023°35'0 0.1
2017-Nov-15 19:00N 38°01' E 023°35'0 0.0
2017-Nov-15 18:30N 38°01' E 023°35'0 0.0
2017-Nov-15 18:00N 38°01' E 023°35'0 0.0
2017-Nov-15 17:26N 38°01' E 023°35'0 0.0
2017-Nov-15 17:01N 38°01' E 023°35'0 0.0
2017-Nov-15 16:31N 38°01' E 023°35'0 0.0
2017-Nov-15 16:01N 38°01' E 023°35'0 0.0
2017-Nov-15 15:31N 38°01' E 023°35'0 0.0
2017-Nov-15 15:01N 38°01' E 023°35'0 0.0
2017-Nov-15 14:31N 38°01' E 023°35'0 0.0
2017-Nov-15 14:01N 38°01' E 023°35'1 2.4
2017-Nov-15 13:30N 38°01' E 023°34'1 2.6
2017-Nov-15 13:01N 38°02' E 023°32'0 0.0
2017-Nov-15 12:30N 38°02' E 023°32'0 0.0
2017-Nov-15 12:00N 38°02' E 023°32'0 0.0
2017-Nov-15 11:31N 38°02' E 023°32'0 0.0
2017-Nov-15 11:01N 38°02' E 023°32'0 0.0
2017-Nov-15 10:31N 38°02' E 023°32'0 0.0
2017-Nov-15 10:00N 38°02' E 023°32'0 0.0
2017-Nov-15 09:31N 38°02' E 023°32'0 0.0
2017-Nov-15 09:01N 38°02' E 023°32'0 0.0
2017-Nov-15 08:30N 38°02' E 023°32'0 0.0
2017-Nov-15 08:01N 38°02' E 023°32'0 0.0
2017-Nov-15 07:31N 38°02' E 023°32'0 0.0
2017-Nov-15 07:01N 38°02' E 023°32'0 0.0
2017-Nov-15 06:31N 38°02' E 023°32'0 0.0
2017-Nov-15 06:00N 38°02' E 023°32'1 1.0
2017-Nov-15 05:30N 38°01' E 023°32'0 0.0
2017-Nov-15 05:01N 38°01' E 023°32'0 0.0
2017-Nov-15 04:30N 38°01' E 023°32'0 0.1
2017-Nov-15 04:01N 38°01' E 023°32'0 0.0
2017-Nov-15 03:30N 38°01' E 023°32'0 0.0
2017-Nov-15 03:01N 38°01' E 023°32'0 0.0
2017-Nov-15 02:31N 38°01' E 023°32'0 0.0
2017-Nov-15 02:00N 38°01' E 023°32'0 0.0
2017-Nov-15 01:31N 38°01' E 023°32'0 0.0
2017-Nov-15 01:01N 38°01' E 023°32'0 0.0
2017-Nov-15 00:31N 38°01' E 023°32'0 0.0
2017-Nov-15 00:01N 38°01' E 023°32'0 0.0
2017-Nov-14 23:31N 38°01' E 023°32'0 0.0
2017-Nov-14 23:01N 38°01' E 023°32'0 0.0
2017-Nov-14 22:31N 38°01' E 023°32'0 0.0
2017-Nov-14 22:01N 38°01' E 023°32'0 0.0
2017-Nov-14 21:31N 38°01' E 023°32'0 0.0
2017-Nov-14 21:01N 38°01' E 023°32'0 0.0
2017-Nov-14 20:31N 38°01' E 023°32'0 0.0
2017-Nov-14 20:01N 38°01' E 023°32'0 0.0
2017-Nov-14 19:31N 38°01' E 023°32'0 0.0
2017-Nov-14 19:01N 38°01' E 023°32'0 0.0
2017-Nov-14 18:31N 38°01' E 023°32'0 0.0
2017-Nov-14 18:01N 38°01' E 023°32'0 0.0
2017-Nov-14 17:31N 38°01' E 023°32'0 0.0
2017-Nov-14 17:01N 38°01' E 023°32'0 0.0
2017-Nov-14 16:31N 38°01' E 023°32'0 0.2
2017-Nov-14 16:00N 38°01' E 023°32'0 0.1
2017-Nov-14 15:30N 38°01' E 023°32'0 0.0
2017-Nov-14 15:01N 38°01' E 023°32'0 0.0
2017-Nov-14 14:30N 38°01' E 023°32'0 0.0
2017-Nov-14 14:00N 38°01' E 023°32'0 0.0
2017-Nov-14 13:30N 38°01' E 023°32'0 0.0
2017-Nov-14 13:01N 38°01' E 023°32'0 0.0
2017-Nov-14 12:31N 38°01' E 023°32'0 0.0
2017-Nov-14 12:01N 38°01' E 023°32'0 0.2
2017-Nov-14 11:30N 38°01' E 023°32'0 0.0
2017-Nov-14 11:01N 38°01' E 023°32'0 0.1
2017-Nov-14 10:30N 38°01' E 023°32'0 0.0
2017-Nov-14 10:01N 38°01' E 023°32'0 0.1
2017-Nov-14 09:30N 38°01' E 023°32'0 0.1
2017-Nov-14 09:00N 38°01' E 023°32'0 0.1
2017-Nov-14 08:30N 38°01' E 023°32'0 0.0
2017-Nov-14 08:01N 38°01' E 023°32'0 0.0
2017-Nov-14 07:30N 38°01' E 023°32'0 0.0
2017-Nov-14 07:00N 38°01' E 023°32'0 0.0
2017-Nov-14 06:30N 38°01' E 023°32'2 4.3
2017-Nov-14 06:01N 37°59' E 023°33'5 9.4
2017-Nov-14 05:31N 37°55' E 023°36'4 8.0
2017-Nov-14 05:00N 37°52' E 023°38'612.0
2017-Nov-14 04:31N 37°46' E 023°42'612.2
2017-Nov-14 04:01N 37°41' E 023°45'4711.4
2017-Nov-13 23:51N 37°32' E 024°44'412.0
2017-Nov-13 23:30N 37°32' E 024°49'612.0
2017-Nov-13 23:01N 37°32' E 024°57'611.9
2017-Nov-13 22:31N 37°32' E 025°04'4 8.2
2017-Nov-13 22:01N 37°32' E 025°09'  

Dump ship's entire track history